Riveredge, Ohio
Current Conditions -  °F | °C
As of 2:51 AM on Tuesday 21 Oct 2014 (Local Time) from KCLE Reporting Station
Light Rain Light Rain  
Wind Chill: 53°   Ceiling: 1700
Heat Index: 53°   Visibility: 4mi
Dew Point: 51°   Wind: 7mph
Humidity: 93%   Direction: 300°WNW
Pressure: 29.85"   Gusts: NA
Location:  41.4315°N, 81.8114°W
Report Text: KCLE 210651Z 30006KT 4SM -RA BR SCT009 BKN017 OVC065 12/11 A2985 RMK AO2 RAB0553E31B45 SLP110 P0001 T01170106 $
Loading
Personal Weather Stations






























Interactive Weather Map
Tropical Storm Tracking
New forecast layout! Learn more

10-Day Weather Forecast

Advertisements
Track Severe Weather on mobile